Flight Track Log - Related Links

Times and Time Zones

All times are in EDT time to prevent confusion due to time zone crossing. See the N498QS flight status page for this flight to view local times or setup timezone preferences in your user account.

Time Position Orientation Groundspeed Altitude Reporting Facility
EDT Latitude Longitude Course Direction KTS MPH feet Rate Location/Type
Tue 07:31:38 PM 38.9167 -77.5333 201° Southwest 239 275 2,400  Level Potomac TRACON
Tue 07:34:02 PM 38.7400 -77.6197 201° Southwest 279 321 11,000 3,206 Climbing Washington Center
Tue 07:35:02 PM 38.6475 -77.6650 201° Southwest 319 367 13,300 2,231 Climbing Washington Center
Tue 07:36:03 PM 38.5486 -77.7100 200° South 358 412 15,500 2,218 Climbing Washington Center
Tue 07:37:01 PM 38.4678 -77.7953 220° Southwest 381 438 17,700 2,118 Climbing Washington Center
Tue 07:38:02 PM 38.3828 -77.8881 221° Southwest 387 445 19,700 2,213 Climbing Washington Center
Tue 07:39:03 PM 38.3017 -77.9861 224° Southwest 403 464 22,200 2,331 Climbing Washington Center
Tue 07:40:03 PM 38.2303 -78.1133 234° Southwest 422 486 24,400 2,136 Climbing Washington Center
Tue 07:41:01 PM 38.1606 -78.2431 236° Southwest 438 504 26,400 2,136 Climbing Washington Center
Tue 07:42:01 PM 38.0842 -78.3933 237° Southwest 458 527 28,600 2,331 Climbing Washington Center
Tue 07:43:02 PM 38.0019 -78.5222 231° Southwest 465 535 31,100 2,678 Climbing Washington Center
Tue 07:44:02 PM 37.9283 -78.6350 230° Southwest 465 535 34,000 1,426 Climbing Washington Center
Tue 07:45:04 PM 37.8458 -78.7606 230° Southwest 465 535 34,000  Level Washington Center
Tue 07:46:01 PM 37.7653 -78.8861 231° Southwest 465 535 34,000 305 Level Washington Center
Tue 07:47:02 PM 37.6867 -79.0033 230° Southwest 459 528 34,600 934 Climbing Washington Center
Tue 07:48:03 PM 37.6039 -79.1333 231° Southwest 454 522 35,900 1,140 Climbing Washington Center
Tue 07:49:03 PM 37.5333 -79.2556 234° Southwest 443 510 36,900 1,000 Climbing Washington Center
Tue 07:50:03 PM 37.4672 -79.3650 233° Southwest 443 510 37,900 1,119 Climbing Washington Center
Tue 07:51:01 PM 37.3819 -79.4914 230° Southwest 443 510 39,100 1,059 Climbing Washington Center
Tue 07:52:02 PM 37.3153 -79.6108 235° Southwest 434 499 40,000 443 Climbing Washington Center
Tue 07:53:03 PM 37.2447 -79.7244 232° Southwest 423 487 40,000  Level Washington Center
Tue 07:54:43 PM 37.1197 -79.9261 232° Southwest 454 522 40,000  Level Atlanta Center
Tue 07:55:43 PM 37.0483 -80.0444 233° Southwest 449 517 40,000  Level Atlanta Center
Tue 07:56:43 PM 36.9750 -80.1625 232° Southwest 444 511 40,000  Level Atlanta Center
Tue 07:57:43 PM 36.9036 -80.2750 232° Southwest 437 503 40,000  Level Atlanta Center
Tue 07:58:43 PM 36.8361 -80.3869 233° Southwest 437 503 40,000  Level Atlanta Center
Tue 07:59:43 PM 36.7603 -80.5044 231° Southwest 437 503 40,000  Level Atlanta Center
Tue 08:00:43 PM 36.6825 -80.6322 233° Southwest 431 496 40,000  Level Atlanta Center
Tue 08:01:43 PM 36.6106 -80.7464 232° Southwest 426 490 40,000  Level Atlanta Center
Tue 08:02:43 PM 36.5367 -80.8658 232° Southwest 431 496 40,000  Level Atlanta Center
Tue 08:03:43 PM 36.4664 -80.9769 232° Southwest 431 496 40,000  Level Atlanta Center
Tue 08:04:43 PM 36.3964 -81.0933 233° Southwest 425 489 40,000  Level Atlanta Center
Tue 08:05:43 PM 36.3239 -81.2067 232° Southwest 425 489 40,000  Level Atlanta Center
Tue 08:06:43 PM 36.2533 -81.3197 232° Southwest 425 489 40,000  Level Atlanta Center
Tue 08:07:43 PM 36.1808 -81.4328 232° Southwest 425 489 40,000 -300 Level Atlanta Center
Tue 08:08:43 PM 36.1122 -81.5431 232° Southwest 417 480 39,400 -1,000 Descending Atlanta Center
Tue 08:09:43 PM 36.0372 -81.6558 231° Southwest 417 480 38,000 -700 Descending Atlanta Center
Tue 08:10:43 PM 35.9744 -81.7578 233° Southwest 424 488 38,000  Level Atlanta Center
Tue 08:11:43 PM 35.9014 -81.8700 231° Southwest 424 488 38,000  Level Atlanta Center
Tue 08:12:43 PM 35.8261 -81.9822 230° Southwest 424 488 38,000  Level Atlanta Center
Tue 08:13:43 PM 35.7550 -82.0914 231° Southwest 424 488 38,000 -300 Level Atlanta Center
Tue 08:14:43 PM 35.6836 -82.2006 231° Southwest 424 488 37,400 -1,050 Descending Atlanta Center
Tue 08:15:43 PM 35.6122 -82.3119 232° Southwest 424 488 35,900 -1,500 Descending Atlanta Center
Tue 08:16:43 PM 35.5344 -82.4258 230° Southwest 431 496 34,400 -1,500 Descending Atlanta Center
Tue 08:17:43 PM 35.4525 -82.5422 229° Southwest 443 510 32,900 -1,450 Descending Atlanta Center
Tue 08:18:43 PM 35.3683 -82.6508 226° Southwest 449 517 31,500 -1,450 Descending Atlanta Center
Tue 08:19:43 PM 35.2819 -82.7692 228° Southwest 449 517 30,000 -1,500 Descending Atlanta Center
Tue 08:20:43 PM 35.1956 -82.8875 228° Southwest 459 528 28,500 -1,600 Descending Atlanta Center
Tue 08:21:43 PM 35.1108 -83.0081 229° Southwest 466 536 26,800 -1,800 Descending Atlanta Center
Tue 08:22:43 PM 35.0283 -83.1156 227° Southwest 456 525 24,900 -1,900 Descending Atlanta Center
Tue 08:23:43 PM 34.9497 -83.2253 229° Southwest 451 519 23,000 -1,850 Descending Atlanta Center
Tue 08:24:43 PM 34.8733 -83.3325 229° Southwest 434 499 21,200 -1,800 Descending Atlanta Center
Tue 08:25:43 PM 34.7944 -83.4342 227° Southwest 422 486 19,400 -1,700 Descending Atlanta Center
Tue 08:26:43 PM 34.7200 -83.5333 228° Southwest 415 478 17,800 -1,750 Descending Atlanta Center
Tue 08:27:43 PM 34.6492 -83.6297 228° Southwest 402 463 15,900 -1,850 Descending Atlanta Center
Tue 08:28:43 PM 34.5786 -83.7233 228° Southwest 389 448 14,100 -1,700 Descending Atlanta Center
Tue 08:29:43 PM 34.5119 -83.8169 229° Southwest 375 432 12,500 -1,500 Descending Atlanta Center
Tue 08:30:43 PM 34.4517 -83.8953 227° Southwest 342 394 11,100 -1,350 Descending Atlanta Center
Tue 08:31:43 PM 34.3892 -83.9758 227° Southwest 313 360 9,800 -1,350 Descending Atlanta Center
Tue 08:32:43 PM 34.3328 -84.0514 228° Southwest 308 354 8,400 -900 Descending Atlanta Center
Tue 08:33:43 PM 34.2617 -84.1042 212° Southwest 308 354 8,000 -300 Descending Atlanta Center
Tue 08:34:43 PM 34.1886 -84.1442 204° Southwest 297 342 7,800 -550 Descending Atlanta Center
Tue 08:35:43 PM 34.1239 -84.1767 203° Southwest 282 325 6,900 -950 Descending Atlanta Center
Tue 08:36:24 PM 34.0833 -84.2000 205° Southwest 230 265 6,200 -1,129 Descending Atlanta TRACON
Tue 08:37:24 PM 34.0333 -84.2333 209° Southwest 224 258 5,000 -1,579 Descending Atlanta TRACON
Tue 08:38:18 PM 33.9833 -84.2500 195° South 215 247 3,200 -1,579 Descending Atlanta TRACON
Tue 08:39:18 PM 33.9333 -84.2833 209° Southwest 204 235 2,000 -1,200 Descending Atlanta TRACON
Tue 08:42:00 PM 33.8756 -84.3020 North  Level Estimated

Login

Don't have an account? Register now (free) for customized features, flight alerts, and more!